Time;durP1;ratioP1;P1;durP2;ratioP2;P2;SDS_P1;SDS_P2;PMS_P1;PMS_P2;Temp;Humidity;BMP_temperature;BMP_pressure;BME280_temperature;BME280_humidity;BME280_pressure;Samples;Min_cycle;Max_cycle;Signal;HPM_P1;HPM_P2
2023/03/04 00:02:14;;;;;;;;;;;6.60;99.90;;;;;;6211931;23;19946;-80
2023/03/04 00:04:40;;;;;;;;;;;6.70;99.90;;;;;;6211044;23;19916;-81
2023/03/04 00:07:07;;;;;;;;;;;6.80;99.90;;;;;;6212001;23;20249;-80
2023/03/04 00:09:35;;;;;;;;;;;6.80;99.80;;;;;;6210797;23;19920;-80
2023/03/04 00:12:01;;;;;;;;;;;6.80;99.60;;;;;;6212329;23;19986;-80
2023/03/04 00:14:28;;;;;;;;;;;6.80;99.10;;;;;;6211527;23;20401;-81
2023/03/04 00:16:56;;;;;;;;;;;6.80;99.00;;;;;;6212741;23;19939;-81
2023/03/04 00:19:23;;;;;;;;;;;6.90;98.20;;;;;;6212633;23;19951;-80
2023/03/04 00:21:49;;;;;;;;;;;6.90;98.00;;;;;;6211950;23;19970;-80
2023/03/04 00:24:16;;;;;;;;;;;6.90;97.90;;;;;;6212369;23;19991;-81
2023/03/04 00:26:43;;;;;;;;;;;6.90;97.80;;;;;;6211405;23;20231;-81
2023/03/04 00:29:09;;;;;;;;;;;6.90;96.80;;;;;;6212736;23;20293;-81
2023/03/04 00:31:36;;;;;;;;;;;6.90;97.10;;;;;;6211298;23;20343;-81
2023/03/04 00:34:03;;;;;;;;;;;6.90;96.30;;;;;;6212616;23;19916;-80
2023/03/04 00:36:30;;;;;;;;;;;6.90;96.00;;;;;;6211154;23;19916;-82
2023/03/04 00:38:57;;;;;;;;;;;6.90;96.50;;;;;;6212581;23;19974;-80
2023/03/04 00:41:23;;;;;;;;;;;6.90;95.40;;;;;;6214907;23;19955;-80
2023/03/04 00:43:50;;;;;;;;;;;7.00;95.60;;;;;;6213198;23;19940;-80
2023/03/04 00:46:17;;;;;;;;;;;6.80;96.10;;;;;;6214665;23;19951;-80
2023/03/04 00:48:44;;;;;;;;;;;6.80;96.20;;;;;;6213393;23;19916;-81
2023/03/04 00:51:10;;;;;;;;;;;6.80;96.70;;;;;;6214668;23;20346;-80
2023/03/04 00:53:37;;;;;;;;;;;6.80;95.50;;;;;;6212806;23;20002;-82
2023/03/04 00:56:04;;;;;;;;;;;6.90;94.80;;;;;;6214487;23;19916;-80
2023/03/04 00:58:31;;;;;;;;;;;6.90;94.00;;;;;;6213453;23;19991;-81
2023/03/04 01:00:58;;;;;;;;;;;7.00;93.80;;;;;;6215427;23;19945;-80
2023/03/04 01:03:25;;;;;;;;;;;7.00;93.60;;;;;;6213721;23;19916;-80
2023/03/04 01:05:52;;;;;;;;;;;7.00;93.60;;;;;;6213038;23;19938;-80
2023/03/04 01:08:19;;;;;;;;;;;7.00;93.60;;;;;;6214231;23;19983;-82
2023/03/04 01:10:47;;;;;;;;;;;6.80;94.00;;;;;;6212310;23;19916;-81
2023/03/04 01:13:14;;;;;;;;;;;7.00;92.20;;;;;;6214236;23;20250;-82
2023/03/04 01:15:40;;;;;;;;;;;7.10;92.30;;;;;;6214324;23;19938;-80
2023/03/04 01:18:07;;;;;;;;;;;7.10;92.80;;;;;;6214224;23;19916;-81
2023/03/04 01:20:34;;;;;;;;;;;7.00;93.10;;;;;;6213342;23;19923;-81
2023/03/04 01:23:01;;;;;;;;;;;7.10;91.20;;;;;;6214252;23;19987;-80
2023/03/04 01:25:28;;;;;;;;;;;7.10;92.00;;;;;;6214113;23;19916;-81
2023/03/04 01:27:54;;;;;;;;;;;7.20;90.20;;;;;;6213379;23;20317;-82
2023/03/04 01:30:21;;;;;;;;;;;7.20;90.30;;;;;;6214384;23;19920;-83
2023/03/04 01:32:48;;;;;;;;;;;7.20;90.30;;;;;;6212930;23;19915;-82
2023/03/04 01:35:15;;;;;;;;;;;7.30;88.90;;;;;;6214155;23;20262;-82
2023/03/04 01:37:41;;;;;;;;;;;7.30;88.00;;;;;;6213147;23;19991;-82
2023/03/04 01:40:08;;;;;;;;;;;7.30;89.90;;;;;;6214325;23;19939;-82
2023/03/04 01:42:35;;;;;;;;;;;7.30;87.10;;;;;;6213424;23;19923;-81
2023/03/04 01:45:03;;;;;;;;;;;7.30;85.90;;;;;;6214076;23;20294;-82
2023/03/04 01:47:31;;;;;;;;;;;7.40;83.70;;;;;;6213845;23;19924;-82
2023/03/04 01:50:00;;;;;;;;;;;7.30;85.60;;;;;;6212524;23;19943;-81
2023/03/04 01:52:27;;;;;;;;;;;7.30;86.80;;;;;;6213432;23;19990;-82
2023/03/04 01:54:54;;;;;;;;;;;7.20;85.00;;;;;;6214061;23;19916;-82
2023/03/04 01:57:22;;;;;;;;;;;7.30;83.60;;;;;;6213991;23;19919;-81
2023/03/04 02:00:07;;;;;;;;;;;7.30;84.80;;;;;;6212780;23;20231;-81
